Flight Track Log - Related Links

Times and Time Zones

All times are in EDT time to prevent confusion due to time zone crossing. See the N8591S flight status page for this flight to view local times or setup timezone preferences in your user account.

Time Position Orientation Groundspeed Altitude Reporting Facility
EDT Latitude Longitude Course Direction KTS MPH feet Rate Location/Type
Sat 02:18:14 PM 36.9994 -86.4431 337° Northwest 85 98 1,800  Level Indianapolis Center
Sat 02:18:56 PM 37.0183 -86.4544 334° Northwest 135 155 1,800 412 Level Memphis Center
Sat 02:19:56 PM 37.0397 -86.4692 331° Northwest 107 123 2,500 650 Climbing Memphis Center
Sat 02:20:56 PM 37.0631 -86.4836 334° Northwest 95 109 3,100 600 Climbing Memphis Center
Sat 02:21:56 PM 37.0864 -86.4981 334° Northwest 95 109 3,700 450 Climbing Memphis Center
Sat 02:22:56 PM 37.1119 -86.5175 329° Northwest 100 115 4,000 150 Climbing Memphis Center
Sat 02:23:00 PM 37.0832 -86.4922 337° Northwest  Level FlightAware Approximate
Sat 02:23:56 PM 37.1394 -86.5292 341° North 100 115 4,000  Level Memphis Center
Sat 02:24:56 PM 37.1714 -86.5511 331° Northwest 100 115 4,000  Level Memphis Center
Sat 02:27:27 PM 37.2461 -86.5900 337° Northwest 116 133 4,000 28 Level Indianapolis Center
Sat 02:28:28 PM 37.2747 -86.6081 333° Northwest 117 135 4,100  Climbing Indianapolis Center
Sat 02:29:30 PM 37.3047 -86.6236 338° Northwest 118 136 4,000 -49 Descending Indianapolis Center
Sat 02:30:31 PM 37.3344 -86.6411 335° Northwest 116 133 4,000  Level Indianapolis Center
Sat 02:31:32 PM 37.3647 -86.6583 336° Northwest 119 137 4,000  Level Indianapolis Center
Sat 02:32:34 PM 37.3939 -86.6764 334° Northwest 117 135 4,000  Level Indianapolis Center
Sat 02:33:35 PM 37.4289 -86.6958 336° Northwest 115 132 4,000 49 Level Indianapolis Center
Sat 02:34:37 PM 37.4589 -86.7125 336° Northwest 117 135 4,100  Climbing Indianapolis Center
Sat 02:35:38 PM 37.4878 -86.7269 338° Northwest 113 130 4,000  Descending Indianapolis Center
Sat 02:36:40 PM 37.5183 -86.7450 335° Northwest 118 136 4,100 49 Climbing Indianapolis Center
Sat 02:37:41 PM 37.5472 -86.7608 337° Northwest 115 132 4,100 -49 Level Indianapolis Center
Sat 02:38:42 PM 37.5778 -86.7781 336° Northwest 119 137 4,000 -49 Descending Indianapolis Center
Sat 02:39:44 PM 37.6061 -86.7958 334° Northwest 115 132 4,000 49 Level Indianapolis Center
Sat 02:40:45 PM 37.6372 -86.8111 339° North 118 136 4,100  Climbing Indianapolis Center
Sat 02:41:47 PM 37.6658 -86.8269 336° Northwest 115 132 4,000  Descending Indianapolis Center
Sat 02:42:48 PM 37.6958 -86.8450 335° Northwest 116 133 4,100  Climbing Indianapolis Center
Sat 02:43:50 PM 37.7272 -86.8611 338° Northwest 120 138 4,000  Descending Indianapolis Center
Sat 02:44:51 PM 37.7628 -86.8814 336° Northwest 118 136 4,100  Climbing Indianapolis Center
Sat 02:45:53 PM 37.7936 -86.8983 337° Northwest 119 137 4,000 -49 Descending Indianapolis Center
Sat 02:46:54 PM 37.8225 -86.9153 335° Northwest 117 135 4,000 49 Level Indianapolis Center
Sat 02:47:56 PM 37.8533 -86.9333 335° Northwest 119 137 4,100 49 Climbing Indianapolis Center
Sat 02:48:57 PM 37.8825 -86.9489 337° Northwest 117 135 4,100 -49 Level Indianapolis Center
Sat 02:49:59 PM 37.9117 -86.9644 337° Northwest 115 132 4,000 -49 Descending Indianapolis Center
Sat 02:51:00 PM 37.9411 -86.9803 337° Northwest 114 131 4,000 49 Level Indianapolis Center
Sat 02:52:02 PM 37.9706 -86.9964 337° Northwest 114 131 4,100 49 Climbing Indianapolis Center
Sat 02:53:03 PM 38.0000 -87.0136 335° Northwest 115 132 4,100 -49 Level Indianapolis Center
Sat 02:54:05 PM 38.0292 -87.0311 335° Northwest 115 132 4,000 -49 Descending Indianapolis Center
Sat 02:55:06 PM 38.0578 -87.0481 335° Northwest 114 131 4,000  Level Indianapolis Center
Sat 02:56:08 PM 38.0925 -87.0681 336° Northwest 113 130 4,000 49 Level Indianapolis Center
Sat 02:57:09 PM 38.1211 -87.0850 335° Northwest 113 130 4,100 49 Climbing Indianapolis Center
Sat 02:58:11 PM 38.1497 -87.1019 335° Northwest 113 130 4,100 -49 Level Indianapolis Center
Sat 02:59:12 PM 38.1781 -87.1192 334° Northwest 113 130 4,000  Descending Indianapolis Center
Sat 03:00:14 PM 38.2047 -87.1361 333° Northwest 109 125 4,100 49 Climbing Indianapolis Center
Sat 03:01:15 PM 38.2333 -87.1533 335° Northwest 111 128 4,100 -49 Level Indianapolis Center
Sat 03:02:17 PM 38.2611 -87.1708 334° Northwest 110 127 4,000 -49 Descending Indianapolis Center
Sat 03:03:18 PM 38.2889 -87.1875 335° Northwest 109 125 4,000 49 Level Indianapolis Center
Sat 03:04:20 PM 38.3178 -87.2056 334° Northwest 112 129 4,100 49 Climbing Indianapolis Center
Sat 03:05:21 PM 38.3467 -87.2217 336° Northwest 112 129 4,100 -49 Level Indianapolis Center
Sat 03:06:23 PM 38.3747 -87.2389 334° Northwest 111 128 4,000 48 Descending Indianapolis Center
Sat 03:07:25 PM 38.4036 -87.2558 335° Northwest 112 129 4,200  Climbing Indianapolis Center
Sat 03:08:26 PM 38.4333 -87.2717 337° Northwest 113 130 4,000 -98 Descending Indianapolis Center
Sat 03:09:28 PM 38.4633 -87.2881 337° Northwest 116 133 4,000 439 Level Indianapolis Center
Sat 03:10:29 PM 38.4947 -87.3067 335° Northwest 109 125 4,900 732 Climbing Indianapolis Center
Sat 03:11:31 PM 38.5153 -87.3178 337° Northwest 95 109 5,500 537 Climbing Indianapolis Center
Sat 03:12:32 PM 38.5353 -87.3278 339° North 82 94 6,000 293 Climbing Indianapolis Center
Sat 03:13:34 PM 38.5597 -87.3403 338° Northwest 89 102 6,100  Climbing Indianapolis Center
Sat 03:14:35 PM 38.5867 -87.3544 338° Northwest 100 115 6,000  Descending Indianapolis Center
Sat 03:15:37 PM 38.6122 -87.3692 336° Northwest 102 117 6,100 49 Climbing Indianapolis Center
Sat 03:16:38 PM 38.6389 -87.3839 337° Northwest 102 117 6,100 49 Level Indianapolis Center
Sat 03:17:40 PM 38.6656 -87.3969 339° North 102 117 6,200  Climbing Indianapolis Center
Sat 03:18:41 PM 38.6922 -87.4108 338° Northwest 103 119 6,100 -49 Descending Indianapolis Center
Sat 03:19:43 PM 38.7186 -87.4253 337° Northwest 102 117 6,100  Level Indianapolis Center
Sat 03:20:44 PM 38.7494 -87.4431 336° Northwest 101 116 6,100  Level Indianapolis Center
Sat 03:21:46 PM 38.7767 -87.4583 336° Northwest 104 120 6,100  Level Indianapolis Center
Sat 03:22:48 PM 38.8039 -87.4739 336° Northwest 106 122 6,100  Level Indianapolis Center
Sat 03:23:49 PM 38.8306 -87.4900 335° Northwest 106 122 6,100 -49 Level Indianapolis Center
Sat 03:24:51 PM 38.8578 -87.5050 337° Northwest 105 121 6,000 -49 Descending Indianapolis Center
Sat 03:25:52 PM 38.8842 -87.5181 339° North 103 119 6,000  Level Indianapolis Center
Sat 03:26:54 PM 38.9114 -87.5314 339° North 103 119 6,000 -49 Level Indianapolis Center
Sat 03:27:55 PM 38.9347 -87.5503 328° Northwest 100 115 5,900  Descending Indianapolis Center
Sat 03:28:57 PM 38.9594 -87.5675 332° Northwest 100 115 6,000 48 Climbing Indianapolis Center
Sat 03:29:59 PM 38.9836 -87.5847 331° Northwest 99 114 6,000  Level Indianapolis Center
Sat 03:31:00 PM 39.0142 -87.6064 331° Northwest 102 117 6,000  Level Indianapolis Center
Sat 03:32:02 PM 39.0403 -87.6239 333° Northwest 104 120 6,000  Level Indianapolis Center
Sat 03:33:03 PM 39.0667 -87.6403 334° Northwest 104 120 6,000 -49 Level Indianapolis Center
Sat 03:34:05 PM 39.0928 -87.6578 333° Northwest 105 121 5,900  Descending Indianapolis Center
Sat 03:35:06 PM 39.1200 -87.6725 337° Northwest 105 121 6,000 49 Climbing Indianapolis Center
Sat 03:36:08 PM 39.1475 -87.6861 339° North 105 121 6,000  Level Indianapolis Center
Sat 03:37:09 PM 39.1750 -87.6994 339° North 105 121 6,000  Level Indianapolis Center
Sat 03:38:11 PM 39.2017 -87.7181 332° Northwest 107 123 6,000  Level Indianapolis Center
Sat 03:39:12 PM 39.2267 -87.7375 329° Northwest 106 122 6,000  Level Indianapolis Center
Sat 03:40:14 PM 39.2536 -87.7533 336° Northwest 105 121 6,000 -49 Level Indianapolis Center
Sat 03:41:15 PM 39.2844 -87.7733 333° Northwest 104 120 5,900  Descending Indianapolis Center
Sat 03:42:17 PM 39.3108 -87.7914 332° Northwest 106 122 6,000 49 Climbing Indianapolis Center
Sat 03:43:18 PM 39.3375 -87.8097 332° Northwest 107 123 6,000  Level Indianapolis Center
Sat 03:44:19 PM 39.3633 -87.8275 332° Northwest 106 122 6,000  Level Indianapolis Center
Sat 03:45:21 PM 39.3903 -87.8447 334° Northwest 110 127 6,000  Level Indianapolis Center
Sat 03:46:22 PM 39.4169 -87.8592 337° Northwest 106 122 6,000  Level Indianapolis Center
Sat 03:47:24 PM 39.4444 -87.8775 333° Northwest 109 125 6,000 49 Level Indianapolis Center
Sat 03:48:25 PM 39.4708 -87.8939 334° Northwest 107 123 6,100  Climbing Indianapolis Center
Sat 03:49:27 PM 39.5044 -87.9156 334° Northwest 112 129 6,000 -49 Descending Indianapolis Center
Sat 03:50:28 PM 39.5325 -87.9325 335° Northwest 112 129 6,000  Level Indianapolis Center
Sat 03:51:30 PM 39.5592 -87.9486 335° Northwest 108 124 6,000  Level Indianapolis Center
Sat 03:52:31 PM 39.5872 -87.9650 336° Northwest 109 125 6,000 -49 Level Indianapolis Center
Sat 03:53:33 PM 39.6164 -87.9803 338° Northwest 112 129 5,900  Descending Indianapolis Center
Sat 03:54:34 PM 39.6428 -87.9947 337° Northwest 107 123 6,000 49 Climbing Indianapolis Center
Sat 03:55:36 PM 39.6692 -88.0108 335° Northwest 105 121 6,000  Level Indianapolis Center
Sat 03:56:37 PM 39.7019 -88.0294 336° Northwest 107 123 6,000  Level Indianapolis Center
Sat 03:57:39 PM 39.7306 -88.0442 338° Northwest 109 125 6,000  Level Indianapolis Center
Sat 03:58:40 PM 39.7592 -88.0611 336° Northwest 112 129 6,000 49 Level Indianapolis Center
Sat 03:59:41 PM 39.7881 -88.0769 337° Northwest 112 129 6,100  Climbing Indianapolis Center
Sat 04:00:43 PM 39.8167 -88.0936 336° Northwest 112 129 6,000 -29 Descending Indianapolis Center
Sat 04:03:06 PM 39.8842 -88.1306 337° Northwest 109 125 6,000 29 Level Chicago Center
Sat 04:04:07 PM 39.9131 -88.1464 337° Northwest 111 128 6,100 49 Climbing Chicago Center
Sat 04:05:09 PM 39.9414 -88.1650 333° Northwest 113 130 6,100  Level Chicago Center
Sat 04:06:11 PM 39.9711 -88.1831 335° Northwest 117 135 6,100  Level Chicago Center
Sat 04:07:12 PM 40.0061 -88.2056 334° Northwest 117 135 6,100  Level Chicago Center
Sat 04:08:14 PM 40.0331 -88.2211 336° Northwest 110 127 6,100 -48 Level Chicago Center
Sat 04:09:16 PM 40.0597 -88.2408 330° Northwest 108 124 6,000 -48 Descending Chicago Center
Sat 04:10:18 PM 40.0856 -88.2600 330° Northwest 107 123 6,000 49 Level Chicago Center
Sat 04:11:19 PM 40.1114 -88.2778 332° Northwest 106 122 6,100 49 Climbing Chicago Center
Sat 04:12:21 PM 40.1364 -88.2964 330° Northwest 104 120 6,100 -48 Level Chicago Center
Sat 04:13:23 PM 40.1628 -88.3142 333° Northwest 106 122 6,000  Descending Chicago Center
Sat 04:14:24 PM 40.1903 -88.3306 336° Northwest 108 124 6,100 49 Climbing Chicago Center
Sat 04:15:26 PM 40.2197 -88.3494 334° Northwest 105 121 6,100  Level Chicago Center
Sat 04:16:28 PM 40.2456 -88.3653 335° Northwest 103 119 6,100  Level Chicago Center
Sat 04:17:29 PM 40.2714 -88.3822 333° Northwest 103 119 6,100  Level Chicago Center
Sat 04:18:31 PM 40.2956 -88.4000 331° Northwest 102 117 6,100  Level Chicago Center
Sat 04:19:33 PM 40.3250 -88.4206 332° Northwest 100 115 6,100 -49 Level Chicago Center
Sat 04:20:34 PM 40.3514 -88.4342 339° North 102 117 6,000  Descending Chicago Center
Sat 04:21:36 PM 40.3769 -88.4481 338° Northwest 100 115 6,100 48 Climbing Chicago Center
Sat 04:22:38 PM 40.4017 -88.4644 333° Northwest 100 115 6,100  Level Chicago Center
Sat 04:23:39 PM 40.4264 -88.4803 334° Northwest 99 114 6,100 -49 Level Chicago Center
Sat 04:24:41 PM 40.4525 -88.4964 335° Northwest 103 119 6,000  Descending Chicago Center
Sat 04:25:43 PM 40.4814 -88.5128 337° Northwest 96 110 6,100 48 Climbing Chicago Center
Sat 04:26:45 PM 40.5078 -88.5281 336° Northwest 101 116 6,100  Level Chicago Center
Sat 04:27:46 PM 40.5331 -88.5431 336° Northwest 101 116 6,100 -49 Level Chicago Center
Sat 04:28:48 PM 40.5567 -88.5597 332° Northwest 98 113 6,000  Descending Chicago Center
Sat 04:29:50 PM 40.5817 -88.5742 336° Northwest 98 113 6,100 49 Climbing Chicago Center
Sat 04:30:51 PM 40.6078 -88.5903 335° Northwest 101 116 6,100  Level Chicago Center
Sat 04:31:53 PM 40.6347 -88.6086 333° Northwest 107 123 6,100  Level Chicago Center
Sat 04:32:55 PM 40.6658 -88.6300 332° Northwest 106 122 6,100 -49 Level Chicago Center
Sat 04:33:56 PM 40.6931 -88.6461 336° Northwest 108 124 6,000 -49 Descending Chicago Center
Sat 04:34:58 PM 40.7175 -88.6597 337° Northwest 101 116 6,000 48 Level Chicago Center
Sat 04:36:00 PM 40.7417 -88.6739 336° Northwest 97 112 6,100 49 Climbing Chicago Center
Sat 04:37:01 PM 40.7683 -88.6900 335° Northwest 102 117 6,100  Level Chicago Center
Sat 04:38:03 PM 40.7953 -88.7061 336° Northwest 105 121 6,100  Level Chicago Center
Sat 04:39:05 PM 40.8261 -88.7253 335° Northwest 104 120 6,100  Level Chicago Center
Sat 04:40:06 PM 40.8536 -88.7422 335° Northwest 107 123 6,100 -49 Level Chicago Center
Sat 04:41:08 PM 40.8783 -88.7575 335° Northwest 104 120 6,000 -48 Descending Chicago Center
Sat 04:42:10 PM 40.9056 -88.7733 336° Northwest 105 121 6,000  Level Chicago Center
Sat 04:43:11 PM 40.9300 -88.7889 334° Northwest 102 117 6,000  Level Chicago Center
Sat 04:44:13 PM 40.9558 -88.8039 336° Northwest 102 117 6,000 49 Level Chicago Center
Sat 04:45:14 PM 40.9811 -88.8197 335° Northwest 102 117 6,100  Climbing Chicago Center
Sat 04:46:16 PM 41.0100 -88.8378 335° Northwest 98 113 6,000  Descending Chicago Center
Sat 04:47:18 PM 41.0342 -88.8528 335° Northwest 97 112 6,100  Climbing Chicago Center
Sat 04:48:19 PM 41.0600 -88.8714 331° Northwest 103 119 6,000  Descending Chicago Center
Sat 04:49:21 PM 41.0853 -88.8878 334° Northwest 103 119 6,100  Climbing Chicago Center
Sat 04:50:22 PM 41.1086 -88.9031 334° Northwest 99 114 6,000 -49 Descending Chicago Center
Sat 04:51:24 PM 41.1333 -88.9189 334° Northwest 98 113 6,000  Level Chicago Center
Sat 04:52:26 PM 41.1572 -88.9353 333° Northwest 97 112 6,000  Level Chicago Center
Sat 04:53:27 PM 41.1869 -88.9556 333° Northwest 99 114 6,000  Level Chicago Center
Sat 04:54:29 PM 41.2125 -88.9722 334° Northwest 100 115 6,000  Level Chicago Center
Sat 04:55:30 PM 41.2361 -88.9875 334° Northwest 99 114 6,000 49 Level Chicago Center
Sat 04:56:32 PM 41.2606 -89.0036 334° Northwest 98 113 6,100  Climbing Chicago Center
Sat 04:57:33 PM 41.2856 -89.0197 334° Northwest 98 113 6,000 -49 Descending Chicago Center
Sat 04:58:35 PM 41.3103 -89.0367 333° Northwest 100 115 6,000 48 Level Chicago Center
Sat 04:59:37 PM 41.3353 -89.0536 333° Northwest 100 115 6,100  Climbing Chicago Center
Sat 05:00:38 PM 41.3653 -89.0761 331° Northwest 102 117 6,000  Descending Chicago Center
Sat 05:01:40 PM 41.3900 -89.0931 333° Northwest 102 117 6,100  Climbing Chicago Center
Sat 05:02:41 PM 41.4139 -89.1089 334° Northwest 97 112 6,000  Descending Chicago Center
Sat 05:03:42 PM 41.4397 -89.1242 336° Northwest 100 115 6,100 49 Climbing Chicago Center
Sat 05:04:44 PM 41.4661 -89.1392 337° Northwest 102 117 6,100  Level Chicago Center
Sat 05:05:45 PM 41.4928 -89.1531 339° North 103 119 6,100  Level Chicago Center
Sat 05:06:47 PM 41.5181 -89.1686 335° Northwest 102 117 6,100 -98 Level Chicago Center
Sat 05:07:48 PM 41.5494 -89.1906 332° Northwest 104 120 5,900 -98 Descending Chicago Center
Sat 05:08:50 PM 41.5756 -89.2061 336° Northwest 104 120 5,900  Level Chicago Center
Sat 05:09:52 PM 41.5994 -89.2222 333° Northwest 99 114 5,900 49 Level Chicago Center
Sat 05:10:53 PM 41.6250 -89.2394 333° Northwest 101 116 6,000 49 Climbing Chicago Center
Sat 05:11:54 PM 41.6539 -89.2564 336° Northwest 109 125 6,000 -49 Level Chicago Center
Sat 05:12:56 PM 41.6794 -89.2717 336° Northwest 105 121 5,900 -49 Descending Chicago Center
Sat 05:13:57 PM 41.7025 -89.2875 333° Northwest 96 110 5,900  Level Chicago Center
Sat 05:14:59 PM 41.7253 -89.3042 331° Northwest 94 108 5,900  Level Chicago Center
Sat 05:16:00 PM 41.7553 -89.3250 333° Northwest 99 114 5,900 49 Level Chicago Center
Sat 05:17:02 PM 41.7781 -89.3425 330° Northwest 97 112 6,000  Climbing Chicago Center
Sat 05:18:03 PM 41.8011 -89.3611 329° Northwest 96 110 5,900  Descending Chicago Center
Sat 05:19:05 PM 41.8253 -89.3783 332° Northwest 98 113 6,000 49 Climbing Chicago Center
Sat 05:20:06 PM 41.8503 -89.3914 339° North 97 112 6,000  Level Chicago Center
Sat 05:21:08 PM 41.8775 -89.4067 337° Northwest 103 119 6,000  Level Chicago Center
Sat 05:22:09 PM 41.9042 -89.4247 333° Northwest 107 123 6,000 49 Level Chicago Center
Sat 05:23:11 PM 41.9336 -89.4428 335° Northwest 100 115 6,100  Climbing Chicago Center
Sat 05:24:12 PM 41.9575 -89.4617 330° Northwest 99 114 6,000 -49 Descending Chicago Center
Sat 05:25:13 PM 41.9833 -89.4750 339° North 100 115 6,000  Level Chicago Center
Sat 05:26:15 PM 42.0069 -89.4928 331° Northwest 99 114 6,000  Level Chicago Center
Sat 05:27:16 PM 42.0322 -89.5067 338° Northwest 99 114 6,000  Level Chicago Center
Sat 05:28:17 PM 42.0553 -89.5228 333° Northwest 95 109 6,000  Level Chicago Center
Sat 05:29:19 PM 42.0839 -89.5447 330° Northwest 99 114 6,000 -49 Level Chicago Center
Sat 05:30:20 PM 42.1100 -89.5636 332° Northwest 106 122 5,900 -49 Descending Chicago Center
Sat 05:31:22 PM 42.1358 -89.5803 334° Northwest 105 121 5,900  Level Chicago Center
Sat 05:32:23 PM 42.1597 -89.5942 337° Northwest 98 113 5,900 49 Level Chicago Center
Sat 05:33:24 PM 42.1831 -89.6061 339° North 90 104 6,000 49 Climbing Chicago Center
Sat 05:34:26 PM 42.2067 -89.6239 331° Northwest 96 110 6,000  Level Chicago Center
Sat 05:35:27 PM 42.2308 -89.6408 333° Northwest 97 112 6,000 -49 Level Chicago Center
Sat 05:36:28 PM 42.2547 -89.6556 335° Northwest 96 110 5,900  Descending Chicago Center
Sat 05:37:30 PM 42.2794 -89.6731 332° Northwest 98 113 6,000  Climbing Chicago Center
Sat 05:38:32 PM 42.3056 -89.6972 326° Northwest 97 112 5,900  Descending Chicago Center
Sat 05:39:33 PM 42.3294 -89.7108 337° Northwest 95 109 6,000 -49 Climbing Chicago Center
Sat 05:40:34 PM 42.3514 -89.7239 336° Northwest 96 110 5,800  Descending Chicago Center
Sat 05:41:36 PM 42.3767 -89.7383 337° Northwest 99 114 6,000 98 Climbing Chicago Center
Sat 05:42:37 PM 42.4058 -89.7586 333° Northwest 100 115 6,000 -49 Level Chicago Center
Sat 05:43:38 PM 42.4322 -89.7775 332° Northwest 106 122 5,900  Descending Chicago Center
Sat 05:44:40 PM 42.4575 -89.7958 332° Northwest 106 122 6,000 49 Climbing Chicago Center
Sat 05:45:41 PM 42.4831 -89.8111 336° Northwest 103 119 6,000 -49 Level Chicago Center
Sat 05:46:43 PM 42.5069 -89.8247 337° Northwest 97 112 5,900  Descending Chicago Center
Sat 05:47:44 PM 42.5317 -89.8411 334° Northwest 98 113 6,000 49 Climbing Chicago Center
Sat 05:48:46 PM 42.5544 -89.8575 332° Northwest 95 109 6,000 -49 Level Chicago Center
Sat 05:49:47 PM 42.5836 -89.8819 328° Northwest 100 115 5,900 -49 Descending Chicago Center
Sat 05:50:49 PM 42.6094 -89.8972 336° Northwest 103 119 5,900  Level Chicago Center
Sat 05:51:50 PM 42.6369 -89.9125 338° Northwest 105 121 5,900 49 Level Chicago Center
Sat 05:52:52 PM 42.6647 -89.9294 336° Northwest 108 124 6,000  Climbing Chicago Center
Sat 05:53:53 PM 42.6903 -89.9461 334° Northwest 105 121 5,900 -49 Descending Chicago Center
Sat 05:54:55 PM 42.7136 -89.9642 330° Northwest 101 116 5,900  Level Chicago Center
Sat 05:55:57 PM 42.7433 -89.9842 334° Northwest 99 114 5,900 49 Level Chicago Center
Sat 05:56:58 PM 42.7692 -90.0033 331° Northwest 104 120 6,000  Climbing Chicago Center
Sat 05:57:59 PM 42.7939 -90.0222 331° Northwest 103 119 5,900 -49 Descending Chicago Center
Sat 05:59:01 PM 42.8192 -90.0411 331° Northwest 105 121 5,900  Level Chicago Center
Sat 06:00:02 PM 42.8417 -90.0603 328° Northwest 101 116 5,900  Level Chicago Center
Sat 06:01:04 PM 42.8656 -90.0789 330° Northwest 99 114 5,900  Level Chicago Center
Sat 06:02:06 PM 42.8942 -90.1019 329° Northwest 100 115 5,900 49 Level Chicago Center
Sat 06:03:07 PM 42.9144 -90.1228 323° Northwest 97 112 6,000 49 Climbing Chicago Center
Sat 06:04:09 PM 42.9381 -90.1331 342° North 92 106 6,000 49 Level Chicago Center
Sat 06:05:10 PM 42.9614 -90.1422 344° North 88 101 6,100  Climbing Chicago Center
Sat 06:06:12 PM 42.9831 -90.1572 333° Northwest 88 101 6,000 -49 Descending Chicago Center
Sat 06:07:13 PM 43.0047 -90.1714 334° Northwest 87 100 6,000  Level Chicago Center
Sat 06:08:14 PM 43.0294 -90.1861 336° Northwest 93 107 6,000 49 Level Chicago Center
Sat 06:09:16 PM 43.0611 -90.2031 339° North 100 115 6,100  Climbing Chicago Center
Sat 06:10:17 PM 43.0864 -90.2178 337° Northwest 100 115 6,000 -49 Descending Chicago Center
Sat 06:11:19 PM 43.1108 -90.2331 335° Northwest 98 113 6,000  Level Chicago Center
Sat 06:12:20 PM 43.1367 -90.2517 332° Northwest 98 113 6,000 -49 Level Chicago Center
Sat 06:13:22 PM 43.1608 -90.2647 338° Northwest 95 109 5,900 49 Descending Chicago Center
Sat 06:14:23 PM 43.1847 -90.2819 332° Northwest 96 110 6,100 49 Climbing Chicago Center
Sat 06:15:25 PM 43.2103 -90.3022 330° Northwest 96 110 6,000 -49 Descending Chicago Center
Sat 06:16:26 PM 43.2339 -90.3203 331° Northwest 98 113 6,000  Level Chicago Center
Sat 06:17:28 PM 43.2597 -90.3372 334° Northwest 101 116 6,000  Level Chicago Center
Sat 06:18:29 PM 43.2875 -90.3589 330° Northwest 108 124 6,000  Level Chicago Center
Sat 06:19:30 PM 43.3133 -90.3783 331° Northwest 109 125 6,000  Level Chicago Center
Sat 06:20:32 PM 43.3392 -90.3958 334° Northwest 106 122 6,000  Level Chicago Center
Sat 06:21:33 PM 43.3728 -90.4147 338° Northwest 109 125 6,000 48 Level Chicago Center
Sat 06:22:37 PM 43.4042 -90.4164 358° North 105 121 6,100 48 Climbing Minneapolis Center
Sat 06:23:38 PM 43.4331 -90.4242 349° North 101 116 6,100  Level Minneapolis Center
Sat 06:24:39 PM 43.4594 -90.4353 343° North 104 120 6,100  Level Minneapolis Center
Sat 06:25:41 PM 43.4897 -90.4453 347° North 107 123 6,100 -33 Level Minneapolis Center
Sat 06:27:00 PM 43.5193 -90.4822 318° Northwest  Level FlightAware Approximate
Sat 06:27:43 PM 43.5478 -90.4647 318° Northwest 102 117 6,000  Level Minneapolis Center
Sat 06:28:45 PM 43.5708 -90.4817 332° Northwest 97 112 6,100 49 Climbing Minneapolis Center
Sat 06:29:46 PM 43.5972 -90.5003 333° Northwest 101 116 6,100 -49 Level Minneapolis Center
Sat 06:30:47 PM 43.6231 -90.5158 336° Northwest 99 114 6,000 -49 Descending Minneapolis Center
Sat 06:31:49 PM 43.6483 -90.5294 339° North 101 116 6,000  Level Minneapolis Center
Sat 06:32:50 PM 43.6731 -90.5472 333° Northwest 96 110 6,000  Level Minneapolis Center
Sat 06:33:51 PM 43.6983 -90.5653 333° Northwest 98 113 6,000  Level Minneapolis Center
Sat 06:34:53 PM 43.7197 -90.5842 327° Northwest 95 109 6,000  Level Minneapolis Center
Sat 06:35:54 PM 43.7433 -90.6075 324° Northwest 100 115 6,000  Level Minneapolis Center
Sat 06:36:56 PM 43.7681 -90.6303 326° Northwest 102 117 6,000  Level Minneapolis Center
Sat 06:37:59 PM 43.7936 -90.6483 333° Northwest 98 113 6,000  Level Minneapolis Center
Sat 06:39:00 PM 43.8178 -90.6686 329° Northwest 98 113 6,000  Level Minneapolis Center
Sat 06:40:02 PM 43.8400 -90.6864 330° Northwest 96 110 6,000  Level Minneapolis Center
Sat 06:41:03 PM 43.8642 -90.7081 327° Northwest 98 113 6,000  Level Minneapolis Center
Sat 06:42:05 PM 43.8886 -90.7297 327° Northwest 98 113 6,000  Level Minneapolis Center
Sat 06:43:06 PM 43.9147 -90.7461 336° Northwest 99 114 6,000  Level Minneapolis Center
Sat 06:44:08 PM 43.9394 -90.7625 334° Northwest 103 119 6,000  Level Minneapolis Center
Sat 06:45:09 PM 43.9669 -90.7806 335° Northwest 105 121 6,000  Level Minneapolis Center
Sat 06:46:11 PM 43.9933 -90.7989 333° Northwest 102 117 6,000  Level Minneapolis Center
Sat 06:47:12 PM 44.0150 -90.8192 326° Northwest 97 112 6,000  Level Minneapolis Center
Sat 06:48:14 PM 44.0392 -90.8411 327° Northwest 99 114 6,000  Level Minneapolis Center
Sat 06:49:15 PM 44.0647 -90.8603 332° Northwest 99 114 6,000  Level Minneapolis Center
Sat 06:50:17 PM 44.0908 -90.8789 333° Northwest 102 117 6,000  Level Minneapolis Center
Sat 06:51:18 PM 44.1150 -90.8975 331° Northwest 103 119 6,000  Level Minneapolis Center
Sat 06:52:20 PM 44.1411 -90.9167 332° Northwest 101 116 6,000 -146 Level Minneapolis Center
Sat 06:53:21 PM 44.1672 -90.9378 330° Northwest 104 120 5,700 -341 Descending Minneapolis Center
Sat 06:54:23 PM 44.1956 -90.9575 333° Northwest 108 124 5,300 -390 Descending Minneapolis Center
Sat 06:55:24 PM 44.2214 -90.9778 331° Northwest 111 128 4,900 -390 Descending Minneapolis Center
Sat 06:56:26 PM 44.2511 -91.0017 330° Northwest 117 135 4,500 -341 Descending Minneapolis Center
Sat 06:57:27 PM 44.2778 -91.0225 331° Northwest 108 124 4,200 -244 Descending Minneapolis Center
Sat 06:58:29 PM 44.3042 -91.0439 330° Northwest 105 121 4,000 -49 Descending Minneapolis Center
Sat 06:59:30 PM 44.3292 -91.0622 332° Northwest 106 122 4,100 49 Climbing Minneapolis Center
Sat 07:00:31 PM 44.3536 -91.0808 331° Northwest 98 113 4,100  Level Minneapolis Center
Sat 07:01:33 PM 44.3783 -91.0989 332° Northwest 96 110 4,100  Level Minneapolis Center
Sat 07:02:34 PM 44.4042 -91.1200 330° Northwest 109 125 4,100 -49 Level Minneapolis Center
Sat 07:03:36 PM 44.4322 -91.1414 331° Northwest 111 128 4,000  Descending Minneapolis Center
Sat 07:04:37 PM 44.4589 -91.1631 330° Northwest 108 124 4,100 49 Climbing Minneapolis Center
Sat 07:05:39 PM 44.4844 -91.1833 330° Northwest 102 117 4,100  Level Minneapolis Center
Sat 07:06:40 PM 44.5119 -91.2031 333° Northwest 111 128 4,100  Level Minneapolis Center
Sat 07:07:42 PM 44.5397 -91.2256 330° Northwest 111 128 4,100  Level Minneapolis Center
Sat 07:08:43 PM 44.5669 -91.2461 332° Northwest 107 123 4,100 -49 Level Minneapolis Center
Sat 07:09:44 PM 44.5944 -91.2697 329° Northwest 109 125 4,000 -98 Descending Minneapolis Center

Login

Don't have an account? Register now (free) for customized features, flight alerts, and more!